Bridgeport Valley, California Weather observations

Data are for 10 minute period ending at time listed.
 Day   Time   Solar   Ave.   Ave.  Ave.  Vector  Max.   Baro.   Total    
  of    of     Rad.   Air    Rel.  Wind   Wind   Wind  Press.  Precip.   
Year   Day            Temp.  Hum.  Speed  Dir.   Gust                    
2015   (PST)  Kw/m2    F      %     mph   deg.    mph    mb.     in.     
-------------------------------------------------------------------------
 242    6:30   0.13   49.1    71    4.3    42     7.4   803.2    0.00 
 242    6:40   0.18   54.4    61    2.8    98     5.0   803.3    0.00 
 242    6:50   0.22   55.2    61    3.6    64     7.7   803.4    0.00 
 242    7:00   0.25   55.4    60    4.8   126     9.5   803.5    0.00 
 242    7:10   0.29   59.3    50    4.5    76     9.6   803.5    0.00 
 242    7:20   0.33   61.3    48    6.1    51     8.8   803.4    0.00 
 242    7:30   0.36   62.7    46    4.5    53     6.6   803.6    0.00 
 242    7:40   0.40   64.4    40    5.2    49     8.0   803.6    0.00 
 242    7:50   0.43   65.9    37    3.0    42     8.8   803.6    0.00 
 242    8:00   0.46   66.7    35    3.1    43     6.4   803.7    0.00 
 242    8:10   0.51   66.6    33    3.3    35     6.3   803.6    0.00 
 242    8:20   0.55   67.6    31    2.3     1     6.0   803.6    0.00 
 242    8:30   0.59   68.9    27    2.3   138     5.0   803.6    0.00 
 242    8:40   0.63   70.1    30    4.4   175    12.1   803.6    0.00 
 242    8:50   0.51   68.8    26    7.5   194    11.2   803.6    0.00 
 242    9:00   0.45   68.2    25    6.8   204    12.1   803.7    0.00 
 242    9:10   0.50   68.9    26    4.5   183     9.7   803.8    0.00 
 242    9:20   0.68   69.5    27    7.4   205    12.1   803.8    0.00 
 242    9:30   0.75   70.2    25    3.2   154     6.9   803.8    0.00 
 242    9:40   0.77   71.4    26    8.0   235    13.2   803.8    0.00 
 242    9:50   0.78   71.1    27    6.6   172    13.1   803.7    0.00 
 242   10:00   0.80   71.4    24    8.8   236    14.2   803.7    0.00 
 242   10:10   0.76   71.3    22    9.4   250    16.5   803.7    0.00 
 242   10:20   0.84   71.6    23    8.4   234    16.3   803.7    0.00 
 242   10:30   0.86   72.0    23    7.8   266    15.3   803.6    0.00 
 242   10:40   0.88   72.4    22    8.0   252    15.5   803.5    0.00 
 242   10:50   0.89   72.6    23    8.7   244    14.5   803.4    0.00 
 242   11:00   0.91   72.7    23    8.7   231    15.0   803.4    0.00 
 242   11:10   0.92   73.1    22    9.4   219    14.5   803.3    0.00 
 242   11:20   0.94   73.6    20   10.7   215    15.3   803.3    0.00 
 242   11:30   0.97   74.0    21   10.7   217    16.1   803.2    0.00 
 242   11:40   0.97   74.4    19   11.1   223    18.0   803.1    0.00 
 242   11:50   0.85   74.4    18   10.1   223    17.2   803.1    0.00 
 242   12:00   0.82   74.4    19   11.9   221    19.4   803.1    0.00 
 242   12:10   0.73   74.1    20   11.5   231    17.0   803.1    0.00 
 242   12:20   0.93   75.1    20   11.8   224    17.7   803.0    0.00 
 242   12:30   0.96   75.5    20   10.4   233    17.6   802.9    0.00 
 242   12:40   0.93   75.2    20    9.8   227    17.8   802.9    0.00 
 242   12:50   0.91   75.6    20   10.9   229    18.0   802.8    0.00 
 242   13:00   0.90   75.7    20   10.6   224    18.8   802.8    0.00 
 242   13:10   0.89   75.6    21    9.3   220    19.1   802.8    0.00 
 242   13:20   0.87   76.1    19    9.8   235    18.6   802.7    0.00 
 242   13:30   0.86   76.7    20   10.9   236    18.7   802.7    0.00 
 242   13:40   0.84   76.4    20   11.9   225    20.5   802.6    0.00 
 242   13:50   0.83   76.1    20   12.9   228    17.7   802.6    0.00 
 242   14:00   0.81   76.3    19   10.9   230    19.7   802.6    0.00 
 242   14:10   0.79   76.6    19   12.1   238    17.7   802.5    0.00 
 242   14:20   0.77   76.8    20   10.5   230    16.4   802.3    0.00 
 242   14:30   0.75   77.0    20   11.8   233    19.0   802.2    0.00 
 242   14:40   0.72   76.9    20   12.0   236    18.9   802.2    0.00 
 242   14:50   0.69   76.7    20   11.3   241    20.2   802.1    0.00 
 242   15:00   0.67   76.8    18   11.0   242    16.6   802.1    0.00 
 242   15:10   0.64   76.9    18    9.2   243    14.7   802.1    0.00 
 242   15:20   0.63   76.9    17   10.0   252    14.5   802.1    0.00 
 242   15:30   0.61   76.6    16   11.4   240    18.0   802.0    0.00 
 242   15:40   0.57   76.5    16    9.6   255    14.8   801.9    0.00 
 242   15:50   0.52   76.8    17    7.6   256    16.6   801.9    0.00 
 242   16:00   0.49   76.1    17    8.5   258    14.6   801.8    0.00 
 242   16:10   0.53   76.5    17    9.1   262    13.4   801.7    0.00 
 242   16:20   0.45   76.3    16    7.7   258    12.3   801.7    0.00 
 242   16:30   0.39   76.1    17    5.9   261     9.9   801.7    0.00 
 242   16:40   0.34   75.8    18    6.5   273    10.1   801.7    0.00 
 242   16:50   0.31   75.2    18    6.8   281     9.7   801.6    0.00 
 242   17:00   0.27   74.7    20    7.2   276    12.6   801.6    0.00 
 242   17:10   0.24   74.4    20    6.5   282     9.6   801.5    0.00 
 242   17:20   0.20   73.7    21    7.9   283    12.1   801.5    0.00 
 242   17:30   0.17   73.0    22    7.9   275    12.3   801.5    0.00 
 242   17:40   0.14   72.1    23    7.2   275    10.5   801.3    0.00 
 242   17:50   0.11   70.8    25    6.9   279     9.6   801.3    0.00 
 242   18:00   0.08   68.8    28    5.4   277     7.2   801.3    0.00 
 242   18:10   0.04   66.8    31    4.6   262     6.1   801.3    0.00 
 242   18:20   0.01   63.2    35    2.8   267     3.9   801.5    0.00 
 242   18:30   0.01   63.2    34    4.5   270     6.3   801.5    0.00 
 242   18:40   0.00   58.8    45    4.2    81     7.1   801.6    0.00 
 242   18:50   0.00   58.1    46    4.5    25     7.4   801.9    0.00 
 242   19:00   0.00   62.3    39    4.7   342     6.4   802.0    0.00 
 242   19:10   0.00   60.0    42    5.5     5     8.4   802.2    0.00 
 242   19:20   0.00   58.5    43    5.1   355     7.4   802.3    0.00 
 242   19:30   0.00   57.5    43    4.8   357     7.0   802.5    0.00 
 242   19:40   0.00   57.1    42    3.3    26     4.4   802.7    0.00 
 242   19:50   0.00   56.1    46    4.5   334     8.0   802.8    0.00 
 242   20:00   0.00   54.5    50    5.5   327     6.8   802.9    0.00 
 242   20:10   0.00   52.7    52    4.9   323     6.7   803.1    0.00 
 242   20:20   0.00   52.9    51    5.2   330     6.7   803.2    0.00 
 242   20:30   0.00   52.3    53    2.6   336     4.9   803.4    0.00 
 242   20:40   0.00   50.8    56    2.5   269     4.6   803.5    0.00 
 242   20:50   0.00   50.6    56    1.7   173     3.2   803.7    0.00 
 242   21:00   0.00   47.7    62    2.9   209     4.0   803.7    0.00 
 242   21:10   0.00   47.9    61    1.9   234     5.2   803.7    0.00 
 242   21:20   0.00   48.1    58    3.0   262     5.0   803.8    0.00 
 242   21:30   0.00   47.3    59    3.3   257     6.7   803.8    0.00 
 242   21:40   0.00   45.6    60    4.2   251     5.3   803.8    0.00 
 242   21:50   0.00   44.9    62    2.7   228     4.0   803.9    0.00 
 242   22:00   0.00   42.4    70    1.7   209     4.4   803.9    0.00 
 242   22:10   0.00   43.1    69    1.4   354     3.9   803.9    0.00 
 242   22:20   0.00   47.6    58    3.0   215     4.7   803.9    0.00 
 242   22:30   0.00   49.7    53    2.0   222     3.4   804.0    0.00 
 242   22:40   0.00   48.5    55    1.4   149     3.8   804.0    0.00 
 242   22:50   0.00   45.7    62    1.8   121     3.9   804.0    0.00 
 242   23:00   0.00   45.6    62    2.1    80     3.3   804.1    0.00 
 242   23:10   0.00   43.9    66    2.8    38     3.7   804.1    0.00 
 242   23:20   0.00   44.5    66    1.6   334     3.6   804.2    0.00 
 242   23:30   0.00   43.4    68    2.0   212     3.2   804.2    0.00 
 242   23:40   0.00   44.3    64    2.3   193     3.1   804.2    0.00 
 242   23:50   0.00   41.6    70    3.9   235     6.3   804.2    0.00 
 243    0:00   0.00   39.6    71    3.1   244     3.7   804.2    0.00 
 243    0:10   0.00   37.3    79    2.3   203     3.3   804.2    0.00 
 243    0:20   0.00   37.6    81    1.2   192     2.0   804.1    0.00 
 243    0:30   0.00   39.5    77    1.4   244     2.0   804.0    0.00 
 243    0:40   0.00   41.6    70    0.6   278     1.5   804.0    0.00 
 243    0:50   0.00   40.7    71    1.9   202     2.9   804.0    0.00 
 243    1:00   0.00   40.0    73    1.9   200     2.9   804.0    0.00 
 243    1:10   0.00   39.2    74    3.0   190     4.0   803.8    0.00 
 243    1:20   0.00   37.0    75    3.0   232     4.9   803.8    0.00 
 243    1:30   0.00   35.9    79    2.6   251     4.1   803.8    0.00 
 243    1:40   0.00   37.3    77    2.0   257     2.6   803.8    0.00 
 243    1:50   0.00   40.0    70    2.0   252     2.8   803.7    0.00 
 243    2:00   0.00   40.2    69    2.3   188     3.0   803.8    0.00 
 243    2:10   0.00   36.1    77    2.1   197     3.0   803.7    0.00 
 243    2:20   0.00   33.2    83    2.8   226     4.5   803.7    0.00 
 243    2:30   0.00   32.2    85    4.2   232     4.7   803.7    0.00 
 243    2:40   0.00   32.6    83    4.7   241     5.2   803.6    0.00 
 243    2:50   0.00   32.8    85    3.6   242     4.2   803.6    0.00 
 243    3:00   0.00   36.9    76    3.2   232     4.5   803.5    0.00 
 243    3:10   0.00   37.4    76    1.6   203     3.4   803.5    0.00 
 243    3:20   0.00   36.2    75    3.6   218     4.7   803.6    0.00 
 243    3:30   0.00   34.6    80    2.8   190     4.2   803.6    0.00 
 243    3:40   0.00   32.6    80    2.6   224     4.1   803.6    0.00 
 243    3:50   0.00   31.7    86    2.4   208     3.0   803.5    0.00 
 243    4:00   0.00   30.5    87    1.5   262     2.9   803.6    0.00 
 243    4:10   0.00   30.7    89    1.0   286     1.7   803.5    0.00 
 243    4:20   0.00   31.1    86    2.5   268     3.9   803.5    0.00 
 243    4:30   0.00   30.7    86    3.7   278     5.0   803.6    0.00 
 243    4:40   0.00   32.0    84    2.8   269     3.2   803.7    0.00 
 243    4:50   0.00   35.5    78    1.5   245     2.6   803.7    0.00 
 243    5:00   0.00   34.6    77    2.2   203     3.6   803.7    0.00 
 243    5:10   0.00   30.7    84    2.5   261     3.7   803.8    0.00 
 243    5:20   0.00   31.5    85    3.2   229     3.9   803.8    0.00 
 243    5:30   0.01   30.7    87    2.7   222     3.1   803.9    0.00 
 243    5:40   0.01   29.1    87    1.1   267     2.6   804.0    0.00 
 243    5:50   0.02   28.5    89    2.4   230     3.3   804.0    0.00 
 243    6:00   0.04   28.7    91    3.0   215     3.8   804.2    0.00 
 243    6:10   0.07   29.9    92    1.6   239     3.4   804.2    0.00 
 243    6:20   0.09   33.2    89    1.3   282     3.4   804.2    0.00 

Return to Bridgeport Valley graphs page.


Western Regional Climate Center,wrcc@dri.edu